Time;durP1;ratioP1;P1;durP2;ratioP2;P2;SDS_P1;SDS_P2;PMS_P1;PMS_P2;Temp;Humidity;BMP_temperature;BMP_pressure;BME280_temperature;BME280_humidity;BME280_pressure;Samples;Min_cycle;Max_cycle;Signal;HPM_P1;HPM_P2
2022/04/05 00:01:30;;;;;;;6.97;5.03;;;;;;;5.55;100.00;99463.00;5081196;28;20044;-85
2022/04/05 00:03:56;;;;;;;5.32;4.75;;;;;;;5.55;100.00;99452.59;5096216;28;20051;-86
2022/04/05 00:06:23;;;;;;;5.55;5.00;;;;;;;5.56;100.00;99449.16;5098086;28;20048;-85
2022/04/05 00:08:52;;;;;;;4.30;3.90;;;;;;;5.54;100.00;99443.13;5088981;28;20123;-85
2022/04/05 00:11:19;;;;;;;4.47;4.10;;;;;;;5.56;100.00;99438.75;5086119;28;20105;-86
2022/04/05 00:13:46;;;;;;;4.80;4.30;;;;;;;5.54;100.00;99445.72;5096069;28;20056;-88
2022/04/05 00:16:12;;;;;;;5.45;3.78;;;;;;;5.52;100.00;99450.06;5096156;28;20096;-86
2022/04/05 00:18:39;;;;;;;5.35;4.20;;;;;;;5.54;100.00;99450.03;5099665;28;20071;-86
2022/04/05 00:21:07;;;;;;;4.60;4.20;;;;;;;5.51;100.00;99445.72;5099119;28;20055;-86
2022/04/05 00:23:33;;;;;;;5.13;4.15;;;;;;;5.48;100.00;99445.75;5082338;28;20076;-85
2022/04/05 00:26:00;;;;;;;4.32;3.22;;;;;;;5.50;100.00;99450.94;5094092;28;20107;-87
2022/04/05 00:28:26;;;;;;;5.57;3.60;;;;;;;5.49;100.00;99455.28;5087139;28;20101;-85
2022/04/05 00:30:53;;;;;;;7.38;4.30;;;;;;;5.45;100.00;99444.06;5085404;28;20451;-87
2022/04/05 00:33:20;;;;;;;4.03;3.65;;;;;;;5.46;100.00;99447.50;5080933;28;20554;-86
2022/04/05 00:35:46;;;;;;;4.47;4.07;;;;;;;5.49;100.00;99459.59;5082851;28;20088;-85
2022/04/05 00:38:14;;;;;;;4.13;3.70;;;;;;;5.48;100.00;99458.75;5086582;28;20124;-86
2022/04/05 00:40:40;;;;;;;4.85;4.32;;;;;;;5.46;100.00;99453.56;5089021;28;20044;-88
2022/04/05 00:43:07;;;;;;;4.07;3.67;;;;;;;5.42;100.00;99451.00;5089103;28;20131;-85
2022/04/05 00:45:35;;;;;;;3.83;3.42;;;;;;;5.40;100.00;99450.16;5085309;28;20071;-88
2022/04/05 00:48:03;;;;;;;3.42;3.10;;;;;;;5.38;100.00;99446.69;5082424;28;20055;-86
2022/04/05 00:50:38;;;;;;;3.13;2.78;;;;;;;5.37;100.00;99451.03;5079805;28;20051;-85
2022/04/05 00:53:07;;;;;;;5.15;4.10;;;;;;;5.33;100.00;99449.31;5083428;28;20948;-85
2022/04/05 00:55:35;;;;;;;3.80;3.15;;;;;;;5.30;100.00;99444.16;5082117;28;20056;-85
2022/04/05 00:58:04;;;;;;;2.38;2.17;;;;;;;5.32;100.00;99455.41;5101174;28;20097;-87
2022/04/05 01:00:32;;;;;;;3.42;3.13;;;;;;;5.26;100.00;99442.47;5082924;28;20044;-86
2022/04/05 01:03:01;;;;;;;3.20;2.67;;;;;;;5.27;100.00;99446.78;5096334;28;20155;-85
2022/04/05 01:05:29;;;;;;;2.30;2.20;;;;;;;5.24;100.00;99444.19;5080858;28;20044;-86
2022/04/05 01:08:02;;;;;;;1.88;1.77;;;;;;;5.25;100.00;99451.09;5087428;28;20056;-87
2022/04/05 01:10:30;;;;;;;2.33;2.13;;;;;;;5.24;100.00;99447.66;5083855;28;20040;-87
2022/04/05 01:12:57;;;;;;;4.05;1.85;;;;;;;5.21;100.00;99454.59;5098924;28;20094;-86
2022/04/05 01:15:25;;;;;;;2.42;1.40;;;;;;;5.20;100.00;99450.28;5098040;28;20096;-87
2022/04/05 01:17:55;;;;;;;1.42;1.33;;;;;;;5.19;100.00;99438.16;5083406;28;20050;-84
2022/04/05 01:20:23;;;;;;;1.55;1.45;;;;;;;5.19;100.00;99458.91;5079939;28;20075;-86
2022/04/05 01:22:53;;;;;;;1.80;1.67;;;;;;;5.18;100.00;99457.22;5097046;28;20044;-86
2022/04/05 01:25:21;;;;;;;2.00;1.67;;;;;;;5.18;100.00;99444.25;5084199;28;20493;-87
2022/04/05 01:27:49;;;;;;;1.45;1.38;;;;;;;5.19;100.00;99440.75;5096388;28;20048;-89
2022/04/05 01:30:16;;;;;;;1.63;1.52;;;;;;;5.16;100.00;99445.97;5095785;28;20040;-86
2022/04/05 01:32:44;;;;;;;1.50;1.40;;;;;;;5.15;100.00;99445.13;5101642;28;20040;-85
2022/04/05 01:35:11;;;;;;;1.55;1.45;;;;;;;5.15;100.00;99445.13;5102371;28;20054;-86
2022/04/05 01:37:38;;;;;;;1.55;1.27;;;;;;;5.13;100.00;99439.09;5084186;28;20059;-86
2022/04/05 01:40:06;;;;;;;1.17;1.08;;;;;;;5.13;100.00;99445.13;5093462;28;20055;-86
2022/04/05 01:42:33;;;;;;;1.33;1.17;;;;;;;5.13;100.00;99441.69;5084676;28;20066;-87
2022/04/05 01:45:01;;;;;;;1.50;1.10;;;;;;;5.08;100.00;99436.50;5081849;28;20048;-87
2022/04/05 01:47:27;;;;;;;1.95;0.70;;;;;;;5.10;100.00;99436.53;5082844;28;20036;-85
2022/04/05 01:49:54;;;;;;;2.53;0.70;;;;;;;5.07;100.00;99440.00;5079263;28;20854;-86
2022/04/05 01:52:20;;;;;;;0.88;0.88;;;;;;;5.05;100.00;99452.09;5093008;28;20149;-87
2022/04/05 01:54:47;;;;;;;0.88;0.88;;;;;;;5.10;100.00;99446.91;5091290;28;20047;-87
2022/04/05 01:57:15;;;;;;;1.00;1.00;;;;;;;5.14;100.00;99453.78;5078860;28;20086;-86
2022/04/05 01:59:43;;;;;;;1.33;1.17;;;;;;;5.11;100.00;99446.88;5082609;28;21332;-85
2022/04/05 02:02:14;;;;;;;2.10;1.00;;;;;;;5.15;100.00;99447.72;5083236;28;20390;-86
2022/04/05 02:04:41;;;;;;;1.35;0.60;;;;;;;5.17;100.00;99440.78;5080524;28;20035;-86
2022/04/05 02:07:15;;;;;;;4.07;2.25;;;;;;;5.16;100.00;99449.44;5081698;28;20059;-87
2022/04/05 02:09:42;;;;;;;1.52;1.20;;;;;;;5.16;100.00;99439.03;5083663;28;20043;-87
2022/04/05 02:12:10;;;;;;;2.22;0.85;;;;;;;5.17;100.00;99447.72;5083962;28;20039;-86
2022/04/05 02:14:38;;;;;;;1.13;0.98;;;;;;;5.17;100.00;99451.16;5097302;28;20048;-85
2022/04/05 02:17:09;;;;;;;1.15;1.10;;;;;;;5.20;100.00;99435.59;5090229;28;20096;-88
2022/04/05 02:19:38;;;;;;;0.63;0.63;;;;;;;5.19;100.00;99448.53;5095868;28;20112;-86
2022/04/05 02:22:05;;;;;;;1.02;0.85;;;;;;;5.19;100.00;99440.75;5084442;28;20132;-86
2022/04/05 02:24:32;;;;;;;2.05;0.88;;;;;;;5.17;100.00;99453.75;5080129;28;20044;-87
2022/04/05 02:26:58;;;;;;;1.80;1.00;;;;;;;5.15;100.00;99460.69;5090176;28;20047;-89
2022/04/05 02:29:25;;;;;;;0.70;0.70;;;;;;;5.16;100.00;99459.81;5099502;28;20059;-89
2022/04/05 02:31:51;;;;;;;2.30;1.20;;;;;;;5.17;100.00;99466.72;5100492;28;20043;-89
2022/04/05 02:34:18;;;;;;;1.30;1.20;;;;;;;5.19;100.00;99466.72;5079072;28;20040;-87
2022/04/05 02:36:45;;;;;;;1.20;1.20;;;;;;;5.19;100.00;99470.19;5086233;28;20101;-89
2022/04/05 02:39:12;;;;;;;1.77;1.20;;;;;;;5.20;100.00;99468.44;5099701;28;20063;-88
2022/04/05 02:41:38;;;;;;;1.73;1.58;;;;;;;5.21;100.00;99480.53;5093041;28;20099;-90
2022/04/05 02:44:06;;;;;;;1.48;1.20;;;;;;;5.21;100.00;99481.41;5077132;28;20040;-90
2022/04/05 02:46:33;;;;;;;2.28;1.45;;;;;;;5.22;100.00;99485.72;5082875;28;20047;-89
2022/04/05 02:48:59;;;;;;;1.60;1.50;;;;;;;5.23;100.00;99484.00;5078789;28;20091;-88
2022/04/05 02:51:26;;;;;;;3.40;1.20;;;;;;;5.23;100.00;99478.81;5092514;28;20048;-88
2022/04/05 02:53:53;;;;;;;2.05;0.95;;;;;;;5.21;100.00;99486.59;5079485;28;20036;-87
2022/04/05 02:56:20;;;;;;;1.23;0.95;;;;;;;5.20;100.00;99482.28;5083776;28;20079;-89
2022/04/05 02:58:48;;;;;;;1.88;1.27;;;;;;;5.22;100.00;99482.28;5097534;28;20093;-88
2022/04/05 03:01:16;;;;;;;1.23;1.13;;;;;;;5.21;100.00;99494.38;5083795;28;20051;-87
2022/04/05 03:03:47;;;;;;;2.17;1.23;;;;;;;5.22;100.00;99496.09;5077227;28;20044;-86
2022/04/05 03:06:14;;;;;;;3.33;1.00;;;;;;;5.22;100.00;99501.28;5091666;28;20036;-89
2022/04/05 03:08:41;;;;;;;1.08;1.00;;;;;;;5.21;100.00;99498.72;5076176;28;20097;-89
2022/04/05 03:11:08;;;;;;;1.38;1.20;;;;;;;5.20;100.00;99495.25;5076794;28;20108;-89
2022/04/05 03:13:35;;;;;;;2.08;1.58;;;;;;;5.22;100.00;99506.47;5077552;28;20363;-89
2022/04/05 03:16:02;;;;;;;2.92;1.10;;;;;;;5.21;100.00;99498.72;5094263;28;20054;-89
2022/04/05 03:18:28;;;;;;;2.38;1.23;;;;;;;5.21;100.00;99509.09;5079398;28;20104;-89
2022/04/05 03:20:55;;;;;;;1.63;1.15;;;;;;;5.21;100.00;99503.91;5083532;28;20140;-89
2022/04/05 03:23:21;;;;;;;2.92;1.02;;;;;;;5.22;100.00;99513.41;5076021;28;20167;-89
2022/04/05 03:25:50;;;;;;;1.77;1.30;;;;;;;5.23;100.00;99505.63;5099124;28;20150;-88
2022/04/05 03:28:18;;;;;;;1.67;1.15;;;;;;;5.25;100.00;99513.38;5096949;28;20118;-87
2022/04/05 03:30:47;;;;;;;0.82;0.82;;;;;;;5.24;100.00;99514.25;5105276;28;20043;-89
2022/04/05 03:33:15;;;;;;;7.47;1.85;;;;;;;5.23;100.00;99520.31;5090063;28;20082;-89
2022/04/05 03:35:42;;;;;;;2.38;1.15;;;;;;;5.23;100.00;99513.41;5095544;28;20138;-87
2022/04/05 03:38:11;;;;;;;3.45;1.00;;;;;;;5.28;100.00;99515.97;5107091;28;20050;-87
2022/04/05 03:40:38;;;;;;;1.27;0.90;;;;;;;5.28;100.00;99521.16;5093187;28;20104;-88
2022/04/05 03:43:07;;;;;;;3.90;1.80;;;;;;;5.26;100.00;99520.31;5085525;28;20141;-86
2022/04/05 03:45:34;;;;;;;2.72;1.50;;;;;;;5.23;100.00;99516.00;5093635;28;20040;-89
2022/04/05 03:48:01;;;;;;;2.95;1.58;;;;;;;5.19;100.00;99521.19;5081723;28;20039;-89
2022/04/05 03:50:28;;;;;;;1.90;1.35;;;;;;;5.18;100.00;99524.69;5091555;28;20059;-89
2022/04/05 03:52:57;;;;;;;4.63;1.40;;;;;;;5.18;100.00;99524.69;5081469;28;20156;-88
2022/04/05 03:55:23;;;;;;;6.85;1.58;;;;;;;5.17;100.00;99523.78;5114008;28;20040;-90
2022/04/05 03:57:52;;;;;;;2.13;1.83;;;;;;;5.17;100.00;99526.38;5083052;28;20075;-88
2022/04/05 04:00:18;;;;;;;1.73;1.30;;;;;;;5.20;100.00;99529.00;5082811;28;20063;-89
2022/04/05 04:02:45;;;;;;;2.03;1.40;;;;;;;5.22;100.00;99532.41;5087154;28;20040;-89
2022/04/05 04:05:16;;;;;;;1.75;1.60;;;;;;;5.25;100.00;99528.94;5085881;28;20044;-90
2022/04/05 04:07:44;;;;;;;6.30;2.30;;;;;;;5.26;100.00;99539.31;5102454;28;20150;-89
2022/04/05 04:10:10;;;;;;;3.65;2.20;;;;;;;5.25;100.00;99534.13;5095358;28;20040;-89
2022/04/05 04:12:37;;;;;;;2.05;1.95;;;;;;;5.29;100.00;99531.53;5086897;28;20046;-88
2022/04/05 04:15:04;;;;;;;3.55;2.42;;;;;;;5.31;100.00;99536.72;5086709;28;20056;-87
2022/04/05 04:17:31;;;;;;;2.33;1.75;;;;;;;5.30;100.00;99535.81;5096993;28;20024;-87
2022/04/05 04:19:57;;;;;;;4.35;2.17;;;;;;;5.30;100.00;99542.75;5079729;28;20039;-87
2022/04/05 04:22:24;;;;;;;3.85;2.20;;;;;;;5.31;100.00;99541.91;5078132;28;20044;-87
2022/04/05 04:24:51;;;;;;;2.75;1.77;;;;;;;5.31;100.00;99544.50;5097207;28;20113;-87
2022/04/05 04:27:18;;;;;;;3.05;1.65;;;;;;;5.33;100.00;99549.66;5095694;28;20043;-86
2022/04/05 04:29:45;;;;;;;3.05;1.85;;;;;;;5.34;100.00;99554.00;5099346;27;20089;-86
2022/04/05 04:32:11;;;;;;;3.65;1.67;;;;;;;5.35;100.00;99559.16;5087518;28;20043;-85
2022/04/05 04:34:38;;;;;;;2.10;1.88;;;;;;;5.36;100.00;99560.03;5082575;28;20063;-86
2022/04/05 04:37:05;;;;;;;2.38;1.60;;;;;;;5.36;100.00;99557.44;5071655;28;20059;-87
2022/04/05 04:39:33;;;;;;;1.88;1.75;;;;;;;5.37;100.00;99565.22;5100358;28;20719;-85
2022/04/05 04:42:00;;;;;;;3.65;1.73;;;;;;;5.37;100.00;99570.41;5098028;28;20123;-87
2022/04/05 04:44:27;;;;;;;6.78;2.30;;;;;;;5.39;100.00;99573.84;5094272;28;20047;-87
2022/04/05 04:46:53;;;;;;;3.83;2.03;;;;;;;5.39;100.00;99583.38;5088196;28;20074;-86
2022/04/05 04:49:20;;;;;;;1.52;1.42;;;;;;;5.42;100.00;99583.34;5080386;28;20050;-87
2022/04/05 04:51:47;;;;;;;2.45;1.38;;;;;;;5.42;100.00;99579.03;5101357;28;20052;-87
2022/04/05 04:54:13;;;;;;;6.65;1.33;;;;;;;5.34;100.00;99572.16;5082091;28;20044;-85
2022/04/05 04:56:40;;;;;;;3.53;0.90;;;;;;;5.31;100.00;99575.63;5096468;28;20051;-86
2022/04/05 04:59:07;;;;;;;6.43;1.20;;;;;;;5.26;100.00;99580.84;5081838;28;20051;-85
2022/04/05 05:01:33;;;;;;;2.28;1.10;;;;;;;5.22;100.00;99586.06;5080066;28;20094;-86
2022/04/05 05:04:00;;;;;;;2.13;1.58;;;;;;;5.19;100.00;99586.06;5094510;28;20253;-86
2022/04/05 05:06:26;;;;;;;7.53;2.20;;;;;;;5.15;100.00;99598.19;5095362;28;20050;-86
2022/04/05 05:08:53;;;;;;;5.28;1.75;;;;;;;5.15;100.00;99598.19;5081746;28;20464;-85
2022/04/05 05:11:20;;;;;;;3.63;0.80;;;;;;;5.14;100.00;99609.44;5097381;28;20163;-85
2022/04/05 05:13:46;;;;;;;7.32;1.75;;;;;;;5.13;100.00;99613.75;5080504;28;20039;-85
2022/04/05 05:16:13;;;;;;;10.38;1.42;;;;;;;5.09;100.00;99614.63;5085146;28;20055;-84
2022/04/05 05:18:39;;;;;;;9.70;2.55;;;;;;;5.08;100.00;99623.28;5097453;28;20047;-87
2022/04/05 05:21:06;;;;;;;4.00;0.85;;;;;;;5.07;100.00;99623.28;5079003;28;20172;-87
2022/04/05 05:23:32;;;;;;;3.83;1.17;;;;;;;5.08;100.00;99632.78;5079286;28;20075;-86
2022/04/05 05:26:04;;;;;;;4.10;1.05;;;;;;;5.07;100.00;99642.31;5086146;28;20044;-87
2022/04/05 05:28:31;;;;;;;7.63;1.20;;;;;;;5.07;100.00;99642.31;5085602;28;20056;-86
2022/04/05 05:30:57;;;;;;;4.50;1.17;;;;;;;5.06;100.00;99650.09;5101203;28;20058;-85
2022/04/05 05:33:24;;;;;;;5.40;1.95;;;;;;;5.08;100.00;99656.13;5101337;28;21532;-85
2022/04/05 05:35:50;;;;;;;7.35;3.15;;;;;;;5.07;100.00;99665.66;5105910;28;20055;-84
2022/04/05 05:38:20;;;;;;;3.60;2.13;;;;;;;5.08;100.00;99659.59;5100723;28;20040;-87
2022/04/05 05:40:46;;;;;;;7.22;1.80;;;;;;;5.10;100.00;99664.78;5081117;28;20047;-87
2022/04/05 05:43:13;;;;;;;6.20;1.35;;;;;;;5.12;100.00;99669.13;5091055;28;20031;-84
2022/04/05 05:45:40;;;;;;;5.70;1.40;;;;;;;5.15;100.00;99663.06;5103482;28;20051;-87
2022/04/05 05:48:08;;;;;;;13.63;1.48;;;;;;;5.19;100.00;99669.97;5111361;27;20090;-85
2022/04/05 05:50:36;;;;;;;5.00;1.13;;;;;;;5.20;100.00;99670.81;5105752;28;20139;-85
2022/04/05 05:53:03;;;;;;;14.18;1.90;;;;;;;5.25;100.00;99679.44;5093698;28;20043;-85
2022/04/05 05:55:29;;;;;;;5.35;1.08;;;;;;;5.30;100.00;99693.28;5089156;28;20049;-84
2022/04/05 05:57:56;;;;;;;7.95;1.70;;;;;;;5.29;100.00;99688.94;5084621;28;20089;-87
2022/04/05 06:00:23;;;;;;;6.30;1.63;;;;;;;5.30;100.00;99690.69;5104769;28;20047;-85
2022/04/05 06:02:56;;;;;;;4.28;1.48;;;;;;;5.30;100.00;99694.13;5102548;28;20047;-86
2022/04/05 06:05:24;;;;;;;11.82;2.78;;;;;;;5.32;100.00;99701.03;5084965;28;20220;-87
2022/04/05 06:07:50;;;;;;;3.10;2.03;;;;;;;5.36;100.00;99706.22;5088566;28;20130;-86
2022/04/05 06:10:18;;;;;;;6.75;2.00;;;;;;;5.41;100.00;99711.41;5092702;28;20075;-87
2022/04/05 06:12:48;;;;;;;4.88;1.48;;;;;;;5.43;100.00;99707.94;5102131;28;20123;-87
2022/04/05 06:15:16;;;;;;;8.30;2.17;;;;;;;5.49;100.00;99712.25;5075317;28;20080;-86
2022/04/05 06:17:49;;;;;;;8.13;1.55;;;;;;;5.53;100.00;99708.78;5085040;28;20064;-86
2022/04/05 06:20:18;;;;;;;6.65;1.55;;;;;;;5.59;100.00;99710.47;5105021;28;20050;-85
2022/04/05 06:22:48;;;;;;;8.95;1.77;;;;;;;5.64;100.00;99716.50;5102579;28;20040;-85
2022/04/05 06:25:23;;;;;;;7.55;1.67;;;;;;;5.67;100.00;99720.84;5106766;28;20039;-88
2022/04/05 06:27:50;;;;;;;9.55;1.60;;;;;;;5.71;100.00;99723.41;5118939;27;20043;-86
2022/04/05 06:30:18;;;;;;;5.47;2.05;;;;;;;5.72;100.00;99726.88;5094871;28;20047;-88
2022/04/05 06:32:46;;;;;;;16.05;1.92;;;;;;;5.74;100.00;99726.00;5091475;28;20039;-85
2022/04/05 06:35:14;;;;;;;9.45;1.48;;;;;;;5.75;100.00;99722.53;5101190;28;20035;-85
2022/04/05 06:37:44;;;;;;;10.23;1.48;;;;;;;5.79;100.00;99726.00;5088617;28;20105;-87
2022/04/05 06:40:14;;;;;;;4.68;1.67;;;;;;;5.83;100.00;99719.03;5088170;28;20043;-86
2022/04/05 06:42:43;;;;;;;11.15;1.88;;;;;;;5.84;100.00;99725.94;5101569;28;20154;-86
2022/04/05 06:45:19;;;;;;;6.82;1.90;;;;;;;5.86;100.00;99730.28;5093109;28;20120;-87
2022/04/05 06:47:47;;;;;;;9.00;3.03;;;;;;;5.89;100.00;99727.69;5088466;28;20105;-85
2022/04/05 06:50:20;;;;;;;6.60;1.73;;;;;;;5.94;100.00;99732.84;5089219;28;20059;-85
2022/04/05 06:52:48;;;;;;;2.95;1.55;;;;;;;5.99;100.00;99732.84;5114888;27;20048;-87
2022/04/05 06:55:15;;;;;;;4.90;1.38;;;;;;;6.07;100.00;99737.13;5104087;28;20047;-87
2022/04/05 06:57:42;;;;;;;4.32;1.60;;;;;;;6.15;99.54;99731.03;5088027;28;20489;-87
2022/04/05 07:00:12;;;;;;;6.35;1.85;;;;;;;6.22;99.09;99741.38;5087937;28;20052;-87
2022/04/05 07:02:40;;;;;;;7.85;1.98;;;;;;;6.26;98.29;99727.50;5089098;28;20052;-87
2022/04/05 07:05:09;;;;;;;12.07;2.63;;;;;;;6.32;97.92;99730.94;5103796;28;20055;-87
2022/04/05 07:07:39;;;;;;;10.25;1.70;;;;;;;6.35;95.11;99720.50;5088832;28;20047;-87
2022/04/05 07:10:09;;;;;;;5.00;1.92;;;;;;;6.37;92.91;99727.41;5098296;28;20056;-87
2022/04/05 07:12:36;;;;;;;7.15;1.73;;;;;;;6.43;91.21;99726.53;5090634;28;20052;-87
2022/04/05 07:15:05;;;;;;;6.15;1.20;;;;;;;6.49;91.07;99721.25;5101175;28;20044;-86
2022/04/05 07:17:31;;;;;;;6.20;1.70;;;;;;;6.62;91.42;99719.44;5089372;28;20472;-87
2022/04/05 07:19:58;;;;;;;2.92;1.23;;;;;;;6.77;89.09;99724.53;5095569;28;20078;-87
2022/04/05 07:22:25;;;;;;;5.35;0.95;;;;;;;6.90;88.66;99727.88;5081457;28;20130;-87
2022/04/05 07:24:52;;;;;;;6.57;1.55;;;;;;;7.04;86.00;99722.56;5086459;28;20397;-87
2022/04/05 07:27:19;;;;;;;4.47;1.15;;;;;;;7.13;86.25;99732.00;5104254;28;20044;-88
2022/04/05 07:29:46;;;;;;;3.47;1.27;;;;;;;7.23;86.51;99730.19;5084558;28;20623;-85
2022/04/05 07:32:12;;;;;;;2.22;0.52;;;;;;;7.35;85.70;99734.41;5106434;28;20050;-85
2022/04/05 07:34:39;;;;;;;2.42;0.70;;;;;;;7.37;83.82;99724.84;5087072;28;20151;-85
2022/04/05 07:37:09;;;;;;;5.57;1.30;;;;;;;7.29;84.07;99728.38;5087861;28;20101;-85
2022/04/05 07:39:36;;;;;;;4.53;1.85;;;;;;;7.32;84.53;99734.44;5090029;28;20054;-86
2022/04/05 07:42:03;;;;;;;3.35;1.13;;;;;;;7.32;82.67;99726.63;5103443;28;20055;-85
2022/04/05 07:44:29;;;;;;;6.90;1.50;;;;;;;7.29;82.83;99730.97;5082866;28;20044;-85
2022/04/05 07:46:56;;;;;;;7.43;1.88;;;;;;;7.28;84.12;99728.41;5094167;28;20788;-85
2022/04/05 07:49:23;;;;;;;3.90;1.30;;;;;;;7.29;83.18;99722.31;5105476;28;20067;-86
2022/04/05 07:51:49;;;;;;;10.50;1.92;;;;;;;7.27;84.26;99732.75;5100505;28;20039;-86
2022/04/05 07:54:16;;;;;;;6.85;2.63;;;;;;;7.28;83.74;99720.59;5091578;28;20032;-85
2022/04/05 07:56:43;;;;;;;7.05;3.65;;;;;;;7.28;84.13;99721.44;5118231;28;20047;-85
2022/04/05 07:59:11;;;;;;;9.70;2.67;;;;;;;7.25;83.94;99734.50;5101819;28;20070;-85
2022/04/05 08:01:37;;;;;;;9.88;2.90;;;;;;;7.23;84.69;99731.03;5117726;28;20055;-85
2022/04/05 08:04:04;;;;;;;12.52;2.17;;;;;;;7.16;84.87;99736.31;5103011;28;20082;-85
2022/04/05 08:06:31;;;;;;;8.93;3.05;;;;;;;7.10;85.38;99738.13;5103901;28;20084;-87
2022/04/05 08:08:58;;;;;;;5.00;2.38;;;;;;;7.15;86.25;99738.06;5106924;28;20293;-86
2022/04/05 08:11:24;;;;;;;7.53;1.85;;;;;;;7.19;86.07;99744.09;5096716;28;20055;-85
2022/04/05 08:13:52;;;;;;;13.95;2.70;;;;;;;7.24;87.37;99742.31;5090530;28;20481;-85
2022/04/05 08:16:19;;;;;;;7.95;3.03;;;;;;;7.24;87.86;99745.78;5097342;28;20065;-86
2022/04/05 08:18:45;;;;;;;9.43;2.22;;;;;;;7.25;87.76;99744.06;5110128;28;20051;-85
2022/04/05 08:21:12;;;;;;;4.88;2.25;;;;;;;7.16;88.73;99741.50;5094722;28;20050;-86
2022/04/05 08:23:39;;;;;;;6.80;2.05;;;;;;;7.11;89.71;99742.44;5110761;28;20067;-86
2022/04/05 08:26:06;;;;;;;13.80;4.13;;;;;;;7.08;90.46;99736.41;5100771;28;20047;-85
2022/04/05 08:28:35;;;;;;;8.98;3.90;;;;;;;7.06;90.95;99746.81;5112954;28;20527;-85
2022/04/05 08:31:02;;;;;;;9.95;2.25;;;;;;;7.07;91.22;99747.69;5094738;28;20051;-85
2022/04/05 08:33:29;;;;;;;10.65;2.83;;;;;;;7.13;89.03;99747.63;5094747;28;20044;-89
2022/04/05 08:35:57;;;;;;;4.88;2.10;;;;;;;7.24;89.37;99750.13;5114098;28;20031;-87
2022/04/05 08:38:24;;;;;;;6.40;3.25;;;;;;;7.35;88.29;99737.84;5115687;28;20031;-86
2022/04/05 08:40:51;;;;;;;4.65;1.67;;;;;;;7.37;86.59;99746.53;5095739;28;20062;-87
2022/04/05 08:43:17;;;;;;;9.20;2.38;;;;;;;7.39;86.72;99747.38;5092469;28;20094;-87
2022/04/05 08:45:46;;;;;;;8.18;2.42;;;;;;;7.42;86.47;99743.88;5091347;28;20112;-86
2022/04/05 08:48:13;;;;;;;6.35;2.53;;;;;;;7.42;87.06;99751.69;5091222;28;20056;-85
2022/04/05 08:50:40;;;;;;;7.90;2.22;;;;;;;7.50;86.39;99752.47;5090543;28;20593;-86
2022/04/05 08:53:07;;;;;;;12.57;3.25;;;;;;;7.50;85.32;99752.47;5086111;28;20040;-85
2022/04/05 08:55:36;;;;;;;6.30;2.10;;;;;;;7.45;85.41;99744.69;5105387;28;20063;-87
2022/04/05 08:58:04;;;;;;;4.68;2.33;;;;;;;7.46;86.58;99758.59;5091303;28;20040;-84
2022/04/05 09:00:30;;;;;;;3.25;1.50;;;;;;;7.46;85.78;99748.16;5090142;28;20267;-85
2022/04/05 09:03:07;;;;;;;8.55;1.70;;;;;;;7.47;86.22;99752.50;5083723;28;20489;-87
2022/04/05 09:05:43;;;;;;;4.45;1.08;;;;;;;7.53;86.50;99757.63;5102422;28;20034;-87
2022/04/05 09:08:25;;;;;;;9.35;1.38;;;;;;;7.54;85.76;99751.53;5093392;28;20134;-86
2022/04/05 09:11:06;;;;;;;6.55;1.15;;;;;;;7.58;85.70;99752.38;5088697;28;20051;-86
2022/04/05 09:13:33;;;;;;;6.10;3.08;;;;;;;7.59;85.70;99754.97;5095648;28;20081;-89
2022/04/05 09:16:04;;;;;;;4.35;1.25;;;;;;;7.53;85.07;99754.16;5101081;28;20074;-87
2022/04/05 09:18:45;;;;;;;7.03;1.55;;;;;;;7.50;84.30;99754.22;5085400;28;20059;-86
2022/04/05 09:21:13;;;;;;;7.47;1.90;;;;;;;7.44;85.39;99757.72;5079451;28;20044;-87
2022/04/05 09:23:43;;;;;;;8.68;1.23;;;;;;;7.52;85.99;99752.44;5097180;28;20043;-87
2022/04/05 09:26:16;;;;;;;5.10;0.95;;;;;;;7.58;84.11;99747.16;5079166;28;20159;-87
2022/04/05 09:28:47;;;;;;;6.22;1.50;;;;;;;7.56;84.18;99755.00;5080974;28;20155;-86
2022/04/05 09:31:23;;;;;;;3.13;1.30;;;;;;;7.62;84.79;99744.50;5080081;28;20150;-86
2022/04/05 09:34:09;;;;;;;8.50;1.38;;;;;;;7.72;84.83;99747.88;5082444;28;20052;-87
2022/04/05 09:36:49;;;;;;;5.65;1.33;;;;;;;7.75;83.75;99750.44;5086325;28;20608;-87
2022/04/05 09:39:17;;;;;;;4.20;0.95;;;;;;;7.77;83.98;99742.63;5081075;28;20059;-88
2022/04/05 09:41:49;;;;;;;7.95;1.63;;;;;;;7.78;83.01;99749.53;5094200;28;20220;-86
2022/04/05 09:44:32;;;;;;;3.05;1.60;;;;;;;7.76;82.83;99748.69;5103878;28;20051;-87
2022/04/05 09:47:10;;;;;;;4.35;0.80;;;;;;;7.73;83.34;99747.00;5103591;27;20146;-88
2022/04/05 09:49:42;;;;;;;6.25;1.35;;;;;;;7.73;83.64;99747.00;5094194;28;20052;-88
2022/04/05 09:52:33;;;;;;;8.27;1.88;;;;;;;7.74;84.03;99751.34;5081737;28;20059;-86
2022/04/05 09:55:18;;;;;;;10.20;1.58;;;;;;;7.73;83.14;99743.50;5088110;28;20535;-87
2022/04/05 09:57:46;;;;;;;3.88;1.67;;;;;;;7.62;84.64;99739.28;5096549;28;20032;-86
2022/04/05 10:00:18;;;;;;;5.63;1.80;;;;;;;7.69;85.79;99740.09;5099519;28;20044;-87
2022/04/05 10:03:09;;;;;;;13.15;4.53;;;;;;;7.82;84.85;99737.34;5094202;28;20124;-86
2022/04/05 10:05:37;;;;;;;8.45;1.92;;;;;;;7.94;84.67;99734.59;5092922;28;20052;-87
2022/04/05 10:08:05;;;;;;;5.43;1.95;;;;;;;8.04;83.77;99735.31;5074629;28;20043;-88
2022/04/05 10:10:35;;;;;;;4.35;1.25;;;;;;;8.08;84.23;99739.59;5091014;28;20040;-87
2022/04/05 10:13:02;;;;;;;4.93;1.55;;;;;;;8.09;84.32;99736.97;5089054;28;20058;-88
2022/04/05 10:15:29;;;;;;;8.13;1.80;;;;;;;8.08;85.08;99735.25;5106372;28;20039;-88
2022/04/05 10:17:58;;;;;;;3.38;1.58;;;;;;;8.05;84.79;99737.03;5100895;28;20066;-87
2022/04/05 10:20:26;;;;;;;4.20;1.70;;;;;;;7.95;86.10;99734.56;5099139;28;20109;-86
2022/04/05 10:22:58;;;;;;;6.72;1.83;;;;;;;7.83;87.67;99728.66;5085109;28;20048;-88
2022/04/05 10:25:26;;;;;;;13.85;2.40;;;;;;;7.67;88.70;99731.44;5084431;28;20050;-86
2022/04/05 10:27:53;;;;;;;3.40;1.92;;;;;;;7.58;89.47;99729.78;5083403;28;20043;-86
2022/04/05 10:30:34;;;;;;;8.32;2.65;;;;;;;7.58;90.66;99724.56;5096485;28;20077;-88
2022/04/05 10:33:42;;;;;;;4.50;1.73;;;;;;;7.53;90.94;99725.53;5079669;28;20047;-87
2022/04/05 10:36:09;;;;;;;4.97;1.98;;;;;;;7.50;91.30;99730.78;5098446;28;20048;-86
2022/04/05 10:38:36;;;;;;;6.38;2.78;;;;;;;7.49;91.62;99716.88;5081831;28;20047;-87
2022/04/05 10:41:24;;;;;;;8.10;2.67;;;;;;;7.53;92.05;99721.16;5095370;28;20074;-87
2022/04/05 10:44:19;;;;;;;7.65;2.50;;;;;;;7.49;91.80;99721.22;5080421;28;20051;-87
2022/04/05 10:47:03;;;;;;;5.25;2.22;;;;;;;7.41;92.70;99718.72;5095503;28;20048;-87
2022/04/05 10:49:47;;;;;;;7.07;2.58;;;;;;;7.40;93.10;99712.63;5096969;28;20142;-87
2022/04/05 10:52:31;;;;;;;3.60;2.67;;;;;;;7.41;93.93;99716.97;5083355;28;20094;-86
2022/04/05 10:55:04;;;;;;;4.17;2.57;;;;;;;7.45;94.87;99717.78;5100708;28;20560;-87
2022/04/05 10:57:41;;;;;;;3.53;2.95;;;;;;;7.44;95.61;99716.06;5113184;27;20100;-86
2022/04/05 11:00:14;;;;;;;5.53;3.00;;;;;;;7.43;95.61;99712.59;5108355;28;20061;-86
2022/04/05 11:02:47;;;;;;;5.13;2.70;;;;;;;7.45;96.29;99716.03;5083558;28;20075;-86
2022/04/05 11:05:14;;;;;;;4.27;3.13;;;;;;;7.47;96.96;99717.78;5081452;28;20286;-86
2022/04/05 11:07:52;;;;;;;5.70;3.13;;;;;;;7.48;97.24;99709.94;5094740;28;20043;-85
2022/04/05 11:10:31;;;;;;;7.70;2.95;;;;;;;7.53;97.75;99717.72;5099339;27;20054;-86
2022/04/05 11:13:17;;;;;;;3.80;2.90;;;;;;;7.57;97.99;99720.28;5086214;28;20070;-86
2022/04/05 11:15:50;;;;;;;9.07;3.58;;;;;;;7.63;97.89;99719.34;5120016;27;20035;-86
2022/04/05 11:18:23;;;;;;;6.68;2.97;;;;;;;7.77;97.85;99720.03;5089699;28;20089;-86
2022/04/05 11:20:56;;;;;;;5.63;3.60;;;;;;;7.95;98.39;99718.03;5083813;28;20048;-86
2022/04/05 11:23:45;;;;;;;8.93;3.03;;;;;;;8.23;98.28;99708.09;5084975;28;20052;-86
2022/04/05 11:26:35;;;;;;;6.05;3.15;;;;;;;8.34;97.16;99709.69;5082921;28;20206;-87
2022/04/05 11:29:20;;;;;;;6.72;3.50;;;;;;;8.38;96.63;99711.38;5083615;28;20142;-86
2022/04/05 11:32:07;;;;;;;6.53;3.05;;;;;;;8.40;97.37;99709.59;5067647;28;20057;-85
2022/04/05 11:34:45;;;;;;;7.95;4.00;;;;;;;8.57;96.78;99704.16;5080853;28;20063;-86
2022/04/05 11:37:11;;;;;;;8.93;3.45;;;;;;;8.70;95.91;99707.44;5093789;28;20058;-86
2022/04/05 11:39:41;;;;;;;5.30;2.90;;;;;;;8.71;95.59;99706.56;5100446;28;20052;-86
2022/04/05 11:42:11;;;;;;;3.35;2.80;;;;;;;8.68;95.71;99709.19;5087051;28;20857;-86
2022/04/05 11:44:50;;;;;;;5.93;3.30;;;;;;;8.65;96.45;99701.44;5073502;28;20048;-86
2022/04/05 11:47:43;;;;;;;4.78;3.33;;;;;;;8.65;97.38;99699.66;5100782;28;20051;-86